CheckWX is a tool to help pilots better visualize weather data.  It is not intended as a substitute for an official pre-flight weather briefing.

22:51:02 UTC

KLWM METAR
Lawrence Municipal Airport
Lawrence, Massachusetts, USA
Current

57 mins ago

KLWM 262154Z 15005KT 10SM CLR 24/17 A3015 RMK AO2 SLP210 T02440167
Observed
May-26 @ 21:54 UTC
Wind
  • 150° at 5 KTS
Visibility
Flight Rules
VFR
Cloud Levels
  • Clear skies
Temperature
24°C / 75°F
Dewpoint
17°C / 63°F
Humidity
65%
Altimeter
30.15" Hg
Pressure
1021.02 hPa
Previous

2 hours ago

KLWM 262054Z 13006KT 10SM CLR 26/17 A3016 RMK AO2 SLP212 T02560167 56009
Observed
May-26 @ 20:54 UTC
Wind
  • 130° at 6 KTS
Visibility
Flight Rules
VFR
Cloud Levels
  • Clear skies
Temperature
26°C / 79°F
Dewpoint
17°C / 63°F
Humidity
58%
Altimeter
30.16" Hg
Pressure
1021.32 hPa
Previous

3 hours ago

KLWM 261954Z 12008KT 10SM CLR 27/17 A3016 RMK AO2 SLP214 T02720167
Observed
May-26 @ 19:54 UTC
Wind
  • 120° at 8 KTS
Visibility
Flight Rules
VFR
Cloud Levels
  • Clear skies
Temperature
27°C / 81°F
Dewpoint
17°C / 63°F
Humidity
54%
Altimeter
30.16" Hg
Pressure
1021.32 hPa